sensor_id;sensor_type;location;lat;lon;timestamp;temperature;humidity
20291;DHT22;10304;51.074;13.754;2023-12-20T00:00:23;9.00;1.00
20291;DHT22;10304;51.074;13.754;2023-12-20T00:02:50;9.00;1.00
20291;DHT22;10304;51.074;13.754;2023-12-20T00:05:17;9.00;1.00
20291;DHT22;10304;51.074;13.754;2023-12-20T00:07:44;8.90;1.00
20291;DHT22;10304;51.074;13.754;2023-12-20T00:10:12;8.90;99.90
20291;DHT22;10304;51.074;13.754;2023-12-20T00:12:39;8.80;99.90
20291;DHT22;10304;51.074;13.754;2023-12-20T00:15:08;8.80;1.00
20291;DHT22;10304;51.074;13.754;2023-12-20T00:17:35;8.80;1.00
20291;DHT22;10304;51.074;13.754;2023-12-20T00:20:02;8.70;1.00
20291;DHT22;10304;51.074;13.754;2023-12-20T00:22:29;8.80;1.00
20291;DHT22;10304;51.074;13.754;2023-12-20T00:24:56;8.70;1.00
20291;DHT22;10304;51.074;13.754;2023-12-20T00:27:23;8.80;99.90
20291;DHT22;10304;51.074;13.754;2023-12-20T00:29:50;8.80;99.90
20291;DHT22;10304;51.074;13.754;2023-12-20T00:32:17;8.70;99.90
20291;DHT22;10304;51.074;13.754;2023-12-20T00:34:43;8.80;99.90
20291;DHT22;10304;51.074;13.754;2023-12-20T00:37:11;8.70;38.50
20291;DHT22;10304;51.074;13.754;2023-12-20T00:39:38;8.70;1.00
20291;DHT22;10304;51.074;13.754;2023-12-20T00:42:05;8.70;1.00
20291;DHT22;10304;51.074;13.754;2023-12-20T00:44:32;8.60;99.90
20291;DHT22;10304;51.074;13.754;2023-12-20T00:46:58;8.70;99.90
20291;DHT22;10304;51.074;13.754;2023-12-20T00:49:25;8.60;1.00
20291;DHT22;10304;51.074;13.754;2023-12-20T00:51:53;8.60;1.00
20291;DHT22;10304;51.074;13.754;2023-12-20T00:54:19;8.60;1.00
20291;DHT22;10304;51.074;13.754;2023-12-20T00:56:46;8.60;1.00
20291;DHT22;10304;51.074;13.754;2023-12-20T00:59:13;8.60;99.90
20291;DHT22;10304;51.074;13.754;2023-12-20T01:01:41;8.60;99.90
20291;DHT22;10304;51.074;13.754;2023-12-20T01:04:09;8.50;99.90
20291;DHT22;10304;51.074;13.754;2023-12-20T01:06:36;8.50;99.90
20291;DHT22;10304;51.074;13.754;2023-12-20T01:09:04;8.50;99.90
20291;DHT22;10304;51.074;13.754;2023-12-20T01:11:30;8.50;1.00
20291;DHT22;10304;51.074;13.754;2023-12-20T01:13:57;8.50;1.00
20291;DHT22;10304;51.074;13.754;2023-12-20T01:16:24;8.50;1.00
20291;DHT22;10304;51.074;13.754;2023-12-20T01:18:51;8.50;1.00
20291;DHT22;10304;51.074;13.754;2023-12-20T01:21:18;8.60;99.90
20291;DHT22;10304;51.074;13.754;2023-12-20T01:23:45;8.50;1.00
20291;DHT22;10304;51.074;13.754;2023-12-20T01:26:12;8.50;99.90
20291;DHT22;10304;51.074;13.754;2023-12-20T01:28:41;8.50;1.00
20291;DHT22;10304;51.074;13.754;2023-12-20T01:31:08;8.50;1.00
20291;DHT22;10304;51.074;13.754;2023-12-20T01:33:35;8.50;1.00
20291;DHT22;10304;51.074;13.754;2023-12-20T01:36:03;8.40;1.00
20291;DHT22;10304;51.074;13.754;2023-12-20T01:38:30;8.40;99.90
20291;DHT22;10304;51.074;13.754;2023-12-20T01:40:57;8.30;99.90
20291;DHT22;10304;51.074;13.754;2023-12-20T01:43:24;8.20;99.90
20291;DHT22;10304;51.074;13.754;2023-12-20T01:45:57;8.20;99.90
20291;DHT22;10304;51.074;13.754;2023-12-20T01:48:28;8.20;1.00
20291;DHT22;10304;51.074;13.754;2023-12-20T01:50:55;8.20;26.70
20291;DHT22;10304;51.074;13.754;2023-12-20T01:53:24;8.20;1.00
20291;DHT22;10304;51.074;13.754;2023-12-20T01:55:55;8.30;99.90
20291;DHT22;10304;51.074;13.754;2023-12-20T01:58:23;8.30;99.90
20291;DHT22;10304;51.074;13.754;2023-12-20T02:00:50;8.30;82.20
20291;DHT22;10304;51.074;13.754;2023-12-20T02:03:18;8.30;99.90
20291;DHT22;10304;51.074;13.754;2023-12-20T02:05:45;8.20;99.90
20291;DHT22;10304;51.074;13.754;2023-12-20T02:08:13;8.30;99.90
20291;DHT22;10304;51.074;13.754;2023-12-20T02:10:40;8.30;99.90
20291;DHT22;10304;51.074;13.754;2023-12-20T02:13:07;8.30;1.00
20291;DHT22;10304;51.074;13.754;2023-12-20T02:15:34;8.30;1.00
20291;DHT22;10304;51.074;13.754;2023-12-20T02:18:04;8.30;1.00
20291;DHT22;10304;51.074;13.754;2023-12-20T02:20:31;8.30;1.00
20291;DHT22;10304;51.074;13.754;2023-12-20T02:22:58;8.30;1.00
20291;DHT22;10304;51.074;13.754;2023-12-20T02:25:25;8.30;1.00
20291;DHT22;10304;51.074;13.754;2023-12-20T02:27:52;8.30;1.00
20291;DHT22;10304;51.074;13.754;2023-12-20T02:30:19;8.30;1.00
20291;DHT22;10304;51.074;13.754;2023-12-20T02:32:47;8.30;1.00
20291;DHT22;10304;51.074;13.754;2023-12-20T02:35:14;8.30;99.90
20291;DHT22;10304;51.074;13.754;2023-12-20T02:37:41;8.20;70.10
20291;DHT22;10304;51.074;13.754;2023-12-20T02:40:08;8.20;99.90
20291;DHT22;10304;51.074;13.754;2023-12-20T02:42:35;8.20;1.00
20291;DHT22;10304;51.074;13.754;2023-12-20T02:45:03;8.20;1.00
20291;DHT22;10304;51.074;13.754;2023-12-20T02:47:31;8.20;1.00
20291;DHT22;10304;51.074;13.754;2023-12-20T02:49:58;8.20;99.90
20291;DHT22;10304;51.074;13.754;2023-12-20T02:52:25;8.20;1.00
20291;DHT22;10304;51.074;13.754;2023-12-20T02:54:52;8.20;1.00
20291;DHT22;10304;51.074;13.754;2023-12-20T02:57:19;8.20;1.00
20291;DHT22;10304;51.074;13.754;2023-12-20T02:59:46;8.20;1.00
20291;DHT22;10304;51.074;13.754;2023-12-20T03:02:13;8.20;1.00
20291;DHT22;10304;51.074;13.754;2023-12-20T03:04:40;8.20;1.00
20291;DHT22;10304;51.074;13.754;2023-12-20T03:07:07;8.20;99.90
20291;DHT22;10304;51.074;13.754;2023-12-20T03:09:34;8.20;1.00
20291;DHT22;10304;51.074;13.754;2023-12-20T03:12:21;8.20;1.00
20291;DHT22;10304;51.074;13.754;2023-12-20T03:14:48;8.20;1.00
20291;DHT22;10304;51.074;13.754;2023-12-20T03:17:15;8.10;1.00
20291;DHT22;10304;51.074;13.754;2023-12-20T03:19:42;8.10;1.00
20291;DHT22;10304;51.074;13.754;2023-12-20T03:22:09;8.10;1.00
20291;DHT22;10304;51.074;13.754;2023-12-20T03:24:36;8.10;1.00
20291;DHT22;10304;51.074;13.754;2023-12-20T03:27:03;8.10;99.90
20291;DHT22;10304;51.074;13.754;2023-12-20T03:29:30;8.00;99.90
20291;DHT22;10304;51.074;13.754;2023-12-20T03:31:57;8.00;99.90
20291;DHT22;10304;51.074;13.754;2023-12-20T03:34:23;7.90;1.00
20291;DHT22;10304;51.074;13.754;2023-12-20T03:36:51;7.90;1.00
20291;DHT22;10304;51.074;13.754;2023-12-20T03:39:18;7.90;1.00
20291;DHT22;10304;51.074;13.754;2023-12-20T03:41:45;7.90;99.90
20291;DHT22;10304;51.074;13.754;2023-12-20T03:44:12;7.90;1.00
20291;DHT22;10304;51.074;13.754;2023-12-20T03:46:38;7.90;99.90
20291;DHT22;10304;51.074;13.754;2023-12-20T03:49:05;7.90;1.00
20291;DHT22;10304;51.074;13.754;2023-12-20T03:51:32;7.90;1.00
20291;DHT22;10304;51.074;13.754;2023-12-20T03:53:59;7.90;1.00
20291;DHT22;10304;51.074;13.754;2023-12-20T03:56:26;7.90;1.00
20291;DHT22;10304;51.074;13.754;2023-12-20T03:58:53;7.90;99.90
20291;DHT22;10304;51.074;13.754;2023-12-20T04:01:20;8.00;1.00
20291;DHT22;10304;51.074;13.754;2023-12-20T04:03:47;8.00;1.00
20291;DHT22;10304;51.074;13.754;2023-12-20T04:06:18;8.00;1.00
20291;DHT22;10304;51.074;13.754;2023-12-20T04:08:45;8.00;1.00
20291;DHT22;10304;51.074;13.754;2023-12-20T04:11:12;8.00;1.00
20291;DHT22;10304;51.074;13.754;2023-12-20T04:13:39;8.10;1.00
20291;DHT22;10304;51.074;13.754;2023-12-20T04:16:06;8.10;1.00
20291;DHT22;10304;51.074;13.754;2023-12-20T04:18:33;8.10;1.00
20291;DHT22;10304;51.074;13.754;2023-12-20T04:21:00;8.10;1.00
20291;DHT22;10304;51.074;13.754;2023-12-20T04:23:26;8.20;1.00
20291;DHT22;10304;51.074;13.754;2023-12-20T04:25:55;8.20;1.00
20291;DHT22;10304;51.074;13.754;2023-12-20T04:28:21;8.20;99.90
20291;DHT22;10304;51.074;13.754;2023-12-20T04:30:48;8.20;99.90
20291;DHT22;10304;51.074;13.754;2023-12-20T04:33:15;8.20;1.00
20291;DHT22;10304;51.074;13.754;2023-12-20T04:35:42;8.20;1.00
20291;DHT22;10304;51.074;13.754;2023-12-20T04:38:09;8.30;54.20
20291;DHT22;10304;51.074;13.754;2023-12-20T04:40:36;8.20;99.90
20291;DHT22;10304;51.074;13.754;2023-12-20T04:43:03;8.20;1.00
20291;DHT22;10304;51.074;13.754;2023-12-20T04:45:30;8.20;1.00
20291;DHT22;10304;51.074;13.754;2023-12-20T04:47:57;8.20;1.00
20291;DHT22;10304;51.074;13.754;2023-12-20T04:50:24;8.20;1.00
20291;DHT22;10304;51.074;13.754;2023-12-20T04:52:51;8.20;1.00
20291;DHT22;10304;51.074;13.754;2023-12-20T04:55:18;8.20;1.00
20291;DHT22;10304;51.074;13.754;2023-12-20T04:57:45;8.20;1.00
20291;DHT22;10304;51.074;13.754;2023-12-20T05:00:13;8.30;1.00
20291;DHT22;10304;51.074;13.754;2023-12-20T05:02:42;8.20;1.00
20291;DHT22;10304;51.074;13.754;2023-12-20T05:05:09;8.20;1.00
20291;DHT22;10304;51.074;13.754;2023-12-20T05:07:36;8.30;1.00
20291;DHT22;10304;51.074;13.754;2023-12-20T05:10:03;8.30;1.00
20291;DHT22;10304;51.074;13.754;2023-12-20T05:12:35;8.20;1.00
20291;DHT22;10304;51.074;13.754;2023-12-20T05:15:02;8.20;47.20
20291;DHT22;10304;51.074;13.754;2023-12-20T05:17:29;8.20;1.00
20291;DHT22;10304;51.074;13.754;2023-12-20T05:19:56;8.10;1.00
20291;DHT22;10304;51.074;13.754;2023-12-20T05:22:23;8.20;1.00
20291;DHT22;10304;51.074;13.754;2023-12-20T05:24:50;8.20;1.00
20291;DHT22;10304;51.074;13.754;2023-12-20T05:27:17;8.30;1.00
20291;DHT22;10304;51.074;13.754;2023-12-20T05:29:44;8.30;1.00
20291;DHT22;10304;51.074;13.754;2023-12-20T05:32:11;8.40;1.00
20291;DHT22;10304;51.074;13.754;2023-12-20T05:34:38;8.40;1.00
20291;DHT22;10304;51.074;13.754;2023-12-20T05:37:05;8.40;1.00
20291;DHT22;10304;51.074;13.754;2023-12-20T05:39:32;8.40;1.00
20291;DHT22;10304;51.074;13.754;2023-12-20T05:41:59;8.50;1.00
20291;DHT22;10304;51.074;13.754;2023-12-20T05:44:26;8.50;99.90
20291;DHT22;10304;51.074;13.754;2023-12-20T05:46:53;8.50;99.90
20291;DHT22;10304;51.074;13.754;2023-12-20T05:49:20;8.50;25.00
20291;DHT22;10304;51.074;13.754;2023-12-20T05:51:48;8.50;1.00
20291;DHT22;10304;51.074;13.754;2023-12-20T05:54:16;8.50;1.00
20291;DHT22;10304;51.074;13.754;2023-12-20T05:56:43;8.50;1.00
20291;DHT22;10304;51.074;13.754;2023-12-20T05:59:10;8.50;99.90
20291;DHT22;10304;51.074;13.754;2023-12-20T06:01:37;8.40;1.00
20291;DHT22;10304;51.074;13.754;2023-12-20T06:04:04;8.50;53.50
20291;DHT22;10304;51.074;13.754;2023-12-20T06:06:31;8.50;99.90
20291;DHT22;10304;51.074;13.754;2023-12-20T06:08:58;8.50;99.90
20291;DHT22;10304;51.074;13.754;2023-12-20T06:11:25;8.50;99.90
20291;DHT22;10304;51.074;13.754;2023-12-20T06:13:52;8.50;99.90
20291;DHT22;10304;51.074;13.754;2023-12-20T06:16:20;8.50;99.90
20291;DHT22;10304;51.074;13.754;2023-12-20T06:18:47;8.60;99.90
20291;DHT22;10304;51.074;13.754;2023-12-20T06:21:14;8.60;99.90
20291;DHT22;10304;51.074;13.754;2023-12-20T06:23:41;8.60;99.90
20291;DHT22;10304;51.074;13.754;2023-12-20T06:26:08;8.70;1.00
20291;DHT22;10304;51.074;13.754;2023-12-20T06:28:35;8.70;1.00
20291;DHT22;10304;51.074;13.754;2023-12-20T06:31:05;8.70;1.00
20291;DHT22;10304;51.074;13.754;2023-12-20T06:33:32;8.70;1.00
20291;DHT22;10304;51.074;13.754;2023-12-20T06:35:59;8.70;1.00
20291;DHT22;10304;51.074;13.754;2023-12-20T06:38:26;8.70;99.90
20291;DHT22;10304;51.074;13.754;2023-12-20T06:40:54;8.70;99.90
20291;DHT22;10304;51.074;13.754;2023-12-20T06:43:21;8.70;99.90
20291;DHT22;10304;51.074;13.754;2023-12-20T06:46:07;8.60;99.90
20291;DHT22;10304;51.074;13.754;2023-12-20T06:48:35;8.60;1.00
20291;DHT22;10304;51.074;13.754;2023-12-20T06:51:02;8.60;99.90
20291;DHT22;10304;51.074;13.754;2023-12-20T06:53:29;8.60;1.00
20291;DHT22;10304;51.074;13.754;2023-12-20T06:55:56;8.40;99.90
20291;DHT22;10304;51.074;13.754;2023-12-20T06:58:23;8.40;1.00
20291;DHT22;10304;51.074;13.754;2023-12-20T07:00:50;8.40;1.00
20291;DHT22;10304;51.074;13.754;2023-12-20T07:03:18;8.40;1.00
20291;DHT22;10304;51.074;13.754;2023-12-20T07:05:45;8.40;1.00
20291;DHT22;10304;51.074;13.754;2023-12-20T07:08:13;8.40;1.00
20291;DHT22;10304;51.074;13.754;2023-12-20T07:10:41;8.40;99.90
20291;DHT22;10304;51.074;13.754;2023-12-20T07:13:08;8.40;1.00
20291;DHT22;10304;51.074;13.754;2023-12-20T07:15:36;8.40;1.00
20291;DHT22;10304;51.074;13.754;2023-12-20T07:18:04;8.40;1.00
20291;DHT22;10304;51.074;13.754;2023-12-20T07:20:33;8.50;1.00
20291;DHT22;10304;51.074;13.754;2023-12-20T07:23:00;8.50;1.00
20291;DHT22;10304;51.074;13.754;2023-12-20T07:25:27;8.50;1.00
20291;DHT22;10304;51.074;13.754;2023-12-20T07:27:54;8.50;1.00
20291;DHT22;10304;51.074;13.754;2023-12-20T07:30:21;8.50;1.00
20291;DHT22;10304;51.074;13.754;2023-12-20T07:32:48;8.60;99.90
20291;DHT22;10304;51.074;13.754;2023-12-20T07:35:16;8.60;1.00
20291;DHT22;10304;51.074;13.754;2023-12-20T07:37:43;8.50;1.00
20291;DHT22;10304;51.074;13.754;2023-12-20T07:40:11;8.50;1.00
20291;DHT22;10304;51.074;13.754;2023-12-20T07:42:38;8.50;99.90
20291;DHT22;10304;51.074;13.754;2023-12-20T07:45:05;8.50;99.90
20291;DHT22;10304;51.074;13.754;2023-12-20T07:47:32;8.50;99.90
20291;DHT22;10304;51.074;13.754;2023-12-20T07:49:59;8.50;99.90
20291;DHT22;10304;51.074;13.754;2023-12-20T07:52:27;8.60;1.00
20291;DHT22;10304;51.074;13.754;2023-12-20T07:54:54;8.60;99.90
20291;DHT22;10304;51.074;13.754;2023-12-20T07:57:21;8.60;99.90
20291;DHT22;10304;51.074;13.754;2023-12-20T07:59:48;8.60;1.00
20291;DHT22;10304;51.074;13.754;2023-12-20T08:02:15;8.50;1.00
20291;DHT22;10304;51.074;13.754;2023-12-20T08:04:42;8.50;1.00
20291;DHT22;10304;51.074;13.754;2023-12-20T08:07:09;8.50;99.90
20291;DHT22;10304;51.074;13.754;2023-12-20T08:09:36;8.50;1.00
20291;DHT22;10304;51.074;13.754;2023-12-20T08:12:03;8.50;1.00
20291;DHT22;10304;51.074;13.754;2023-12-20T08:14:30;8.60;1.00
20291;DHT22;10304;51.074;13.754;2023-12-20T08:16:58;8.70;1.00
20291;DHT22;10304;51.074;13.754;2023-12-20T08:19:25;8.80;99.90
20291;DHT22;10304;51.074;13.754;2023-12-20T08:21:53;8.90;1.00
20291;DHT22;10304;51.074;13.754;2023-12-20T08:24:20;9.00;1.00
20291;DHT22;10304;51.074;13.754;2023-12-20T08:26:47;9.10;1.00
20291;DHT22;10304;51.074;13.754;2023-12-20T08:29:14;9.10;1.00
20291;DHT22;10304;51.074;13.754;2023-12-20T08:31:41;9.20;1.00
20291;DHT22;10304;51.074;13.754;2023-12-20T08:34:08;9.20;99.90
20291;DHT22;10304;51.074;13.754;2023-12-20T08:36:35;9.30;99.90
20291;DHT22;10304;51.074;13.754;2023-12-20T08:39:02;9.40;99.90
20291;DHT22;10304;51.074;13.754;2023-12-20T08:41:34;9.50;1.00
20291;DHT22;10304;51.074;13.754;2023-12-20T08:44:01;9.70;1.00
20291;DHT22;10304;51.074;13.754;2023-12-20T08:46:28;9.90;99.90
20291;DHT22;10304;51.074;13.754;2023-12-20T08:48:56;10.10;99.90
20291;DHT22;10304;51.074;13.754;2023-12-20T08:51:23;10.30;1.00
20291;DHT22;10304;51.074;13.754;2023-12-20T08:53:52;10.50;1.00
20291;DHT22;10304;51.074;13.754;2023-12-20T08:56:19;10.60;1.00
20291;DHT22;10304;51.074;13.754;2023-12-20T08:58:47;10.80;99.90
20291;DHT22;10304;51.074;13.754;2023-12-20T09:01:14;10.90;99.90
20291;DHT22;10304;51.074;13.754;2023-12-20T09:03:42;11.00;1.00
20291;DHT22;10304;51.074;13.754;2023-12-20T09:06:09;11.00;1.00
20291;DHT22;10304;51.074;13.754;2023-12-20T09:08:36;10.90;99.90
20291;DHT22;10304;51.074;13.754;2023-12-20T09:11:03;10.80;99.90
20291;DHT22;10304;51.074;13.754;2023-12-20T09:13:30;10.70;99.90
20291;DHT22;10304;51.074;13.754;2023-12-20T09:15:59;10.60;99.90
20291;DHT22;10304;51.074;13.754;2023-12-20T09:18:26;10.60;99.90
20291;DHT22;10304;51.074;13.754;2023-12-20T09:20:53;10.70;99.90
20291;DHT22;10304;51.074;13.754;2023-12-20T09:23:20;10.90;99.90
20291;DHT22;10304;51.074;13.754;2023-12-20T09:25:47;11.00;99.90
20291;DHT22;10304;51.074;13.754;2023-12-20T09:28:14;11.10;99.90
20291;DHT22;10304;51.074;13.754;2023-12-20T09:30:42;11.40;99.90
20291;DHT22;10304;51.074;13.754;2023-12-20T09:33:10;11.50;99.90
20291;DHT22;10304;51.074;13.754;2023-12-20T09:35:37;11.80;99.90
20291;DHT22;10304;51.074;13.754;2023-12-20T09:38:05;11.90;99.90
20291;DHT22;10304;51.074;13.754;2023-12-20T09:40:32;12.00;99.90
20291;DHT22;10304;51.074;13.754;2023-12-20T09:43:04;12.10;99.90
20291;DHT22;10304;51.074;13.754;2023-12-20T09:45:32;12.10;99.90
20291;DHT22;10304;51.074;13.754;2023-12-20T09:47:59;12.20;99.90
20291;DHT22;10304;51.074;13.754;2023-12-20T09:50:27;12.30;99.90
20291;DHT22;10304;51.074;13.754;2023-12-20T09:52:58;12.50;99.90
20291;DHT22;10304;51.074;13.754;2023-12-20T09:55:27;12.60;99.90
20291;DHT22;10304;51.074;13.754;2023-12-20T09:57:56;12.70;85.30
20291;DHT22;10304;51.074;13.754;2023-12-20T10:00:23;12.70;85.40
20291;DHT22;10304;51.074;13.754;2023-12-20T10:02:58;12.90;64.40
20291;DHT22;10304;51.074;13.754;2023-12-20T10:05:30;13.00;13.70
20291;DHT22;10304;51.074;13.754;2023-12-20T10:07:59;13.00;12.70
20291;DHT22;10304;51.074;13.754;2023-12-20T10:10:27;12.90;1.00
20291;DHT22;10304;51.074;13.754;2023-12-20T10:13:10;12.70;1.00
20291;DHT22;10304;51.074;13.754;2023-12-20T10:15:38;12.50;22.40
20291;DHT22;10304;51.074;13.754;2023-12-20T10:18:06;12.40;12.70
20291;DHT22;10304;51.074;13.754;2023-12-20T10:20:34;12.40;7.40
20291;DHT22;10304;51.074;13.754;2023-12-20T10:23:01;12.50;1.00
20291;DHT22;10304;51.074;13.754;2023-12-20T10:25:29;12.60;1.00
20291;DHT22;10304;51.074;13.754;2023-12-20T10:30:38;12.70;1.00
20291;DHT22;10304;51.074;13.754;2023-12-20T10:33:07;12.60;1.00
20291;DHT22;10304;51.074;13.754;2023-12-20T10:35:39;12.60;1.00
20291;DHT22;10304;51.074;13.754;2023-12-20T10:38:12;12.60;1.00
20291;DHT22;10304;51.074;13.754;2023-12-20T10:40:42;12.70;1.00
20291;DHT22;10304;51.074;13.754;2023-12-20T10:43:10;12.70;1.00
20291;DHT22;10304;51.074;13.754;2023-12-20T10:45:38;12.70;1.00
20291;DHT22;10304;51.074;13.754;2023-12-20T10:48:05;12.60;1.00
20291;DHT22;10304;51.074;13.754;2023-12-20T10:50:36;12.40;1.00
20291;DHT22;10304;51.074;13.754;2023-12-20T10:53:06;12.50;1.00
20291;DHT22;10304;51.074;13.754;2023-12-20T10:55:33;12.80;1.00
20291;DHT22;10304;51.074;13.754;2023-12-20T10:58:10;12.70;1.00
20291;DHT22;10304;51.074;13.754;2023-12-20T11:01:12;12.60;1.00
20291;DHT22;10304;51.074;13.754;2023-12-20T11:03:53;12.70;1.00
20291;DHT22;10304;51.074;13.754;2023-12-20T11:06:26;12.80;1.00
20291;DHT22;10304;51.074;13.754;2023-12-20T11:14:47;13.50;1.00
20291;DHT22;10304;51.074;13.754;2023-12-20T11:17:14;13.60;1.00
20291;DHT22;10304;51.074;13.754;2023-12-20T11:20:04;13.50;1.00
20291;DHT22;10304;51.074;13.754;2023-12-20T11:22:33;13.40;1.00
20291;DHT22;10304;51.074;13.754;2023-12-20T11:25:11;13.30;1.00
20291;DHT22;10304;51.074;13.754;2023-12-20T11:27:43;13.00;1.00
20291;DHT22;10304;51.074;13.754;2023-12-20T11:30:14;12.70;1.00
20291;DHT22;10304;51.074;13.754;2023-12-20T11:32:41;12.40;1.00
20291;DHT22;10304;51.074;13.754;2023-12-20T11:37:38;11.90;1.00
20291;DHT22;10304;51.074;13.754;2023-12-20T11:40:16;11.70;1.00
20291;DHT22;10304;51.074;13.754;2023-12-20T11:42:45;11.50;1.00
20291;DHT22;10304;51.074;13.754;2023-12-20T11:45:19;11.30;1.00
20291;DHT22;10304;51.074;13.754;2023-12-20T11:47:50;11.10;1.00
20291;DHT22;10304;51.074;13.754;2023-12-20T11:50:18;11.00;1.00
20291;DHT22;10304;51.074;13.754;2023-12-20T11:52:47;10.90;1.00
20291;DHT22;10304;51.074;13.754;2023-12-20T11:55:14;11.00;1.00
20291;DHT22;10304;51.074;13.754;2023-12-20T11:57:42;11.10;1.00
20291;DHT22;10304;51.074;13.754;2023-12-20T12:00:10;11.30;1.00
20291;DHT22;10304;51.074;13.754;2023-12-20T12:02:38;11.60;1.00
20291;DHT22;10304;51.074;13.754;2023-12-20T12:05:05;11.90;1.00
20291;DHT22;10304;51.074;13.754;2023-12-20T12:07:34;12.20;1.00
20291;DHT22;10304;51.074;13.754;2023-12-20T12:10:02;12.40;1.00
20291;DHT22;10304;51.074;13.754;2023-12-20T12:12:30;12.70;1.00
20291;DHT22;10304;51.074;13.754;2023-12-20T12:14:59;13.00;1.00
20291;DHT22;10304;51.074;13.754;2023-12-20T12:17:26;13.20;1.00
20291;DHT22;10304;51.074;13.754;2023-12-20T12:20:03;13.50;1.00
20291;DHT22;10304;51.074;13.754;2023-12-20T12:22:31;13.60;1.00
20291;DHT22;10304;51.074;13.754;2023-12-20T12:25:10;13.80;1.00
20291;DHT22;10304;51.074;13.754;2023-12-20T12:27:42;13.90;1.00
20291;DHT22;10304;51.074;13.754;2023-12-20T12:30:10;14.00;1.00
20291;DHT22;10304;51.074;13.754;2023-12-20T12:32:40;14.00;1.00
20291;DHT22;10304;51.074;13.754;2023-12-20T12:35:08;14.10;1.00
20291;DHT22;10304;51.074;13.754;2023-12-20T12:37:38;14.10;1.00
20291;DHT22;10304;51.074;13.754;2023-12-20T12:40:11;14.30;1.00
20291;DHT22;10304;51.074;13.754;2023-12-20T12:42:44;14.40;1.00
20291;DHT22;10304;51.074;13.754;2023-12-20T12:45:12;14.60;1.00
20291;DHT22;10304;51.074;13.754;2023-12-20T12:47:39;14.70;1.00
20291;DHT22;10304;51.074;13.754;2023-12-20T12:50:07;14.80;1.00
20291;DHT22;10304;51.074;13.754;2023-12-20T12:52:34;15.00;1.00
20291;DHT22;10304;51.074;13.754;2023-12-20T12:55:02;15.20;1.00
20291;DHT22;10304;51.074;13.754;2023-12-20T12:57:32;15.50;1.00
20291;DHT22;10304;51.074;13.754;2023-12-20T13:00:00;15.80;1.00
20291;DHT22;10304;51.074;13.754;2023-12-20T13:02:28;16.20;1.00
20291;DHT22;10304;51.074;13.754;2023-12-20T13:04:55;16.50;1.00
20291;DHT22;10304;51.074;13.754;2023-12-20T13:07:22;16.70;1.00
20291;DHT22;10304;51.074;13.754;2023-12-20T13:09:49;16.80;1.00
20291;DHT22;10304;51.074;13.754;2023-12-20T13:12:16;17.00;1.00
20291;DHT22;10304;51.074;13.754;2023-12-20T13:14:43;17.20;1.00
20291;DHT22;10304;51.074;13.754;2023-12-20T13:17:11;17.50;1.00
20291;DHT22;10304;51.074;13.754;2023-12-20T13:19:37;17.60;1.00
20291;DHT22;10304;51.074;13.754;2023-12-20T13:22:05;17.60;1.00
20291;DHT22;10304;51.074;13.754;2023-12-20T13:24:32;17.70;1.00
20291;DHT22;10304;51.074;13.754;2023-12-20T13:26:59;17.80;1.00
20291;DHT22;10304;51.074;13.754;2023-12-20T13:29:26;18.00;1.00
20291;DHT22;10304;51.074;13.754;2023-12-20T13:31:55;18.00;1.00
20291;DHT22;10304;51.074;13.754;2023-12-20T13:34:23;18.00;1.00
20291;DHT22;10304;51.074;13.754;2023-12-20T13:36:51;18.00;1.00
20291;DHT22;10304;51.074;13.754;2023-12-20T13:39:18;18.10;1.00
20291;DHT22;10304;51.074;13.754;2023-12-20T13:41:45;18.10;1.00
20291;DHT22;10304;51.074;13.754;2023-12-20T13:44:12;18.20;1.00
20291;DHT22;10304;51.074;13.754;2023-12-20T13:46:42;18.30;1.00
20291;DHT22;10304;51.074;13.754;2023-12-20T13:49:09;18.00;1.00
20291;DHT22;10304;51.074;13.754;2023-12-20T13:51:36;17.80;1.00
20291;DHT22;10304;51.074;13.754;2023-12-20T13:54:03;17.60;1.00
20291;DHT22;10304;51.074;13.754;2023-12-20T13:56:30;17.40;1.00
20291;DHT22;10304;51.074;13.754;2023-12-20T13:59:02;16.90;1.00
20291;DHT22;10304;51.074;13.754;2023-12-20T14:01:28;16.20;1.00
20291;DHT22;10304;51.074;13.754;2023-12-20T14:03:56;15.60;1.00
20291;DHT22;10304;51.074;13.754;2023-12-20T14:06:23;15.00;1.00
20291;DHT22;10304;51.074;13.754;2023-12-20T14:08:50;14.40;1.00
20291;DHT22;10304;51.074;13.754;2023-12-20T14:11:17;13.90;1.00
20291;DHT22;10304;51.074;13.754;2023-12-20T14:13:47;13.50;1.00
20291;DHT22;10304;51.074;13.754;2023-12-20T14:16:14;13.20;1.00
20291;DHT22;10304;51.074;13.754;2023-12-20T14:18:42;13.00;1.00
20291;DHT22;10304;51.074;13.754;2023-12-20T14:21:09;12.70;1.00
20291;DHT22;10304;51.074;13.754;2023-12-20T14:23:37;12.50;1.00
20291;DHT22;10304;51.074;13.754;2023-12-20T14:26:04;12.20;1.00
20291;DHT22;10304;51.074;13.754;2023-12-20T14:28:31;12.10;1.00
20291;DHT22;10304;51.074;13.754;2023-12-20T14:30:58;11.80;1.00
20291;DHT22;10304;51.074;13.754;2023-12-20T14:33:28;11.60;1.00
20291;DHT22;10304;51.074;13.754;2023-12-20T14:35:57;11.40;1.00
20291;DHT22;10304;51.074;13.754;2023-12-20T14:38:27;11.30;1.00
20291;DHT22;10304;51.074;13.754;2023-12-20T14:40:54;11.20;1.00
20291;DHT22;10304;51.074;13.754;2023-12-20T14:43:21;11.10;1.00
20291;DHT22;10304;51.074;13.754;2023-12-20T14:45:49;10.90;1.00
20291;DHT22;10304;51.074;13.754;2023-12-20T14:48:18;10.90;1.00
20291;DHT22;10304;51.074;13.754;2023-12-20T14:50:45;10.70;1.00
20291;DHT22;10304;51.074;13.754;2023-12-20T14:53:17;10.70;1.00
20291;DHT22;10304;51.074;13.754;2023-12-20T14:55:49;10.60;1.00
20291;DHT22;10304;51.074;13.754;2023-12-20T14:58:17;10.60;1.00
20291;DHT22;10304;51.074;13.754;2023-12-20T15:00:44;10.50;1.00
20291;DHT22;10304;51.074;13.754;2023-12-20T15:03:12;10.50;1.00
20291;DHT22;10304;51.074;13.754;2023-12-20T15:05:39;10.40;1.00
20291;DHT22;10304;51.074;13.754;2023-12-20T15:08:07;10.40;1.00
20291;DHT22;10304;51.074;13.754;2023-12-20T15:10:35;10.30;1.00
20291;DHT22;10304;51.074;13.754;2023-12-20T15:13:04;10.30;1.00
20291;DHT22;10304;51.074;13.754;2023-12-20T15:15:31;10.30;1.00
20291;DHT22;10304;51.074;13.754;2023-12-20T15:18:00;10.20;1.00
20291;DHT22;10304;51.074;13.754;2023-12-20T15:20:27;10.20;1.00
20291;DHT22;10304;51.074;13.754;2023-12-20T15:22:53;10.20;1.00
20291;DHT22;10304;51.074;13.754;2023-12-20T15:25:21;10.10;1.00
20291;DHT22;10304;51.074;13.754;2023-12-20T15:27:49;10.10;1.00
20291;DHT22;10304;51.074;13.754;2023-12-20T15:30:20;10.10;1.00
20291;DHT22;10304;51.074;13.754;2023-12-20T15:32:47;10.10;1.00
20291;DHT22;10304;51.074;13.754;2023-12-20T15:35:14;10.10;1.00
20291;DHT22;10304;51.074;13.754;2023-12-20T15:37:41;10.10;1.00
20291;DHT22;10304;51.074;13.754;2023-12-20T15:40:09;10.10;1.00
20291;DHT22;10304;51.074;13.754;2023-12-20T15:42:38;10.10;1.00
20291;DHT22;10304;51.074;13.754;2023-12-20T15:45:06;10.10;1.00
20291;DHT22;10304;51.074;13.754;2023-12-20T15:47:36;10.00;1.00
20291;DHT22;10304;51.074;13.754;2023-12-20T15:50:03;10.00;1.00